Time;durP1;ratioP1;P1;durP2;ratioP2;P2;SDS_P1;SDS_P2;PMS_P1;PMS_P2;Temp;Humidity;BMP_temperature;BMP_pressure;BME280_temperature;BME280_humidity;BME280_pressure;Samples;Min_cycle;Max_cycle;Signal;HPM_P1;HPM_P2
2022/12/28 00:01:26;;;;;;;3.63;1.30;;;6.10;96.30;;;;;;4916220;29;20054;-85
2022/12/28 00:03:54;;;;;;;4.80;1.65;;;6.10;96.30;;;;;;4934490;29;20094;-85
2022/12/28 00:06:23;;;;;;;3.38;1.50;;;6.10;96.40;;;;;;4921410;29;20047;-90
2022/12/28 00:08:54;;;;;;;4.57;1.70;;;6.10;96.40;;;;;;4890353;29;20144;-89
2022/12/28 00:11:26;;;;;;;4.73;1.23;;;6.10;96.40;;;;;;4895526;29;20063;-84
2022/12/28 00:13:59;;;;;;;4.13;1.58;;;6.10;96.50;;;;;;4924300;29;20047;-88
2022/12/28 00:16:40;;;;;;;4.22;1.90;;;6.10;96.50;;;;;;4913518;29;20524;-87
2022/12/28 00:19:12;;;;;;;5.85;1.85;;;6.10;96.60;;;;;;4910614;29;20047;-88
2022/12/28 00:21:43;;;;;;;4.93;1.80;;;6.10;96.60;;;;;;4933010;29;20075;-84
2022/12/28 00:24:22;;;;;;;5.10;1.92;;;6.10;96.70;;;;;;4929801;29;20031;-85
2022/12/28 00:26:49;;;;;;;3.05;1.20;;;6.10;96.70;;;;;;4922731;29;20054;-85
2022/12/28 00:29:17;;;;;;;4.22;1.20;;;6.10;96.70;;;;;;4928945;29;20046;-84
2022/12/28 00:31:44;;;;;;;2.78;1.40;;;6.10;96.70;;;;;;4910115;29;20047;-85
2022/12/28 00:34:12;;;;;;;4.05;1.33;;;6.10;96.80;;;;;;4923637;29;20405;-86
2022/12/28 00:36:40;;;;;;;3.67;1.17;;;6.10;96.80;;;;;;4894967;29;20537;-86
2022/12/28 00:39:28;;;;;;;2.97;1.20;;;6.10;96.90;;;;;;4929936;29;20090;-86
2022/12/28 00:41:55;;;;;;;3.60;1.15;;;6.10;96.90;;;;;;4917897;29;20512;-86
2022/12/28 00:44:22;;;;;;;2.75;1.30;;;6.10;96.90;;;;;;4874730;29;20071;-85
2022/12/28 00:46:49;;;;;;;2.10;1.15;;;6.10;96.90;;;;;;4917773;29;20075;-84
2022/12/28 00:49:17;;;;;;;4.53;1.50;;;6.10;96.90;;;;;;4880539;29;20102;-85
2022/12/28 00:51:44;;;;;;;4.97;1.60;;;6.10;97.00;;;;;;4895482;29;20044;-85
2022/12/28 00:54:11;;;;;;;5.30;1.42;;;6.20;97.00;;;;;;4901934;29;20047;-85
2022/12/28 00:56:41;;;;;;;5.40;1.75;;;6.10;97.00;;;;;;4888860;29;20050;-85
2022/12/28 00:59:09;;;;;;;5.60;1.75;;;6.20;97.00;;;;;;4919885;29;20043;-85
2022/12/28 01:01:36;;;;;;;4.07;1.48;;;6.20;97.10;;;;;;4919551;29;20077;-85
2022/12/28 01:04:04;;;;;;;6.63;1.92;;;6.20;97.10;;;;;;4894135;29;20075;-82
2022/12/28 01:06:31;;;;;;;3.35;1.65;;;6.20;97.10;;;;;;4930322;29;20557;-82
2022/12/28 01:08:59;;;;;;;6.10;1.52;;;6.20;97.10;;;;;;4933954;29;20146;-82
2022/12/28 01:11:27;;;;;;;4.78;1.98;;;6.20;97.10;;;;;;4918386;29;20498;-82
2022/12/28 01:13:58;;;;;;;5.25;1.83;;;6.20;97.20;;;;;;4891252;29;20111;-82
2022/12/28 01:16:34;;;;;;;4.88;2.60;;;6.30;97.20;;;;;;4896591;29;20055;-83
2022/12/28 01:19:05;;;;;;;5.78;2.05;;;6.30;97.20;;;;;;4884733;29;20044;-82
2022/12/28 01:21:34;;;;;;;5.43;2.45;;;6.30;97.20;;;;;;4898146;29;20131;-81
2022/12/28 01:24:04;;;;;;;4.40;1.77;;;6.30;97.20;;;;;;4911923;29;20131;-82
2022/12/28 01:26:31;;;;;;;4.18;1.88;;;6.40;97.20;;;;;;4890290;29;20052;-83
2022/12/28 01:28:58;;;;;;;5.22;2.05;;;6.40;97.20;;;;;;4871558;29;20052;-82
2022/12/28 01:31:25;;;;;;;8.07;3.08;;;6.40;97.20;;;;;;4897225;29;20582;-82
2022/12/28 01:33:54;;;;;;;5.45;2.10;;;6.40;97.20;;;;;;4897856;29;20039;-81
2022/12/28 01:36:23;;;;;;;5.90;2.28;;;6.50;97.10;;;;;;4911525;29;20086;-82
2022/12/28 01:39:00;;;;;;;6.38;2.47;;;6.50;97.10;;;;;;4898968;29;20116;-83
2022/12/28 01:41:28;;;;;;;4.78;2.22;;;6.50;97.10;;;;;;4911385;29;20051;-82
2022/12/28 01:43:55;;;;;;;4.95;2.58;;;6.60;97.10;;;;;;4901311;29;20060;-82
2022/12/28 01:46:49;;;;;;;5.07;2.40;;;6.60;97.10;;;;;;4909999;29;20568;-82
2022/12/28 01:49:26;;;;;;;5.68;2.42;;;6.60;97.10;;;;;;4881270;29;20064;-83
2022/12/28 01:52:03;;;;;;;5.90;2.40;;;6.70;97.10;;;;;;4891974;29;20142;-83
2022/12/28 01:54:40;;;;;;;8.27;2.80;;;6.70;97.10;;;;;;4904137;29;20486;-82
2022/12/28 01:57:07;;;;;;;8.43;2.97;;;6.70;97.00;;;;;;4914191;29;20048;-82
2022/12/28 01:59:38;;;;;;;8.82;2.83;;;6.80;97.10;;;;;;4903082;29;20103;-82
2022/12/28 02:02:06;;;;;;;5.53;2.53;;;6.80;97.00;;;;;;4890147;29;20052;-83
2022/12/28 02:04:34;;;;;;;6.60;2.22;;;6.80;97.00;;;;;;4874282;29;20040;-83
2022/12/28 02:07:01;;;;;;;4.90;2.38;;;6.80;97.00;;;;;;4896266;29;20051;-82
2022/12/28 02:09:40;;;;;;;3.92;2.35;;;6.80;97.00;;;;;;4859435;29;20058;-83
2022/12/28 02:12:14;;;;;;;4.45;2.45;;;6.90;97.00;;;;;;4920060;29;20059;-82
2022/12/28 02:14:43;;;;;;;3.95;2.50;;;6.90;97.00;;;;;;4905212;29;20095;-82
2022/12/28 02:17:11;;;;;;;4.43;2.22;;;6.90;97.00;;;;;;4891625;29;20127;-83
2022/12/28 02:19:45;;;;;;;5.00;2.17;;;6.90;97.00;;;;;;4901536;29;20043;-83
2022/12/28 02:22:37;;;;;;;5.03;2.70;;;6.90;97.00;;;;;;4908109;29;20055;-83
2022/12/28 02:25:35;;;;;;;5.05;2.58;;;6.90;97.00;;;;;;4910362;29;20055;-82
2022/12/28 02:28:06;;;;;;;4.10;2.22;;;7.00;97.00;;;;;;4897187;29;20044;-82
2022/12/28 02:30:43;;;;;;;5.63;2.55;;;6.90;97.00;;;;;;4886768;29;20406;-82
2022/12/28 02:33:16;;;;;;;3.55;2.28;;;7.00;97.10;;;;;;4912754;29;20462;-82
2022/12/28 02:36:02;;;;;;;3.70;2.05;;;7.00;97.10;;;;;;4881071;29;20036;-82
2022/12/28 02:38:54;;;;;;;4.32;2.30;;;7.00;97.10;;;;;;4908824;29;20406;-83
2022/12/28 02:41:25;;;;;;;6.57;2.20;;;7.00;97.10;;;;;;4910567;29;20138;-83
2022/12/28 02:43:58;;;;;;;4.35;2.13;;;7.00;97.10;;;;;;4904753;29;20069;-83
2022/12/28 02:52:28;;;;;;;6.07;2.20;;;7.10;97.10;;;;;;4913439;29;20044;-83
2022/12/28 02:58:31;;;;;;;5.93;3.20;;;7.10;97.10;;;;;;4910420;29;20060;-83
2022/12/28 03:01:20;;;;;;;6.07;2.97;;;7.00;97.50;;;;;;4916010;29;20518;-83
2022/12/28 03:03:53;;;;;;;8.68;3.15;;;7.00;97.40;;;;;;4916024;29;20510;-83
2022/12/28 03:09:45;;;;;;;5.20;2.60;;;6.90;97.40;;;;;;4911092;29;20056;-86
2022/12/28 03:12:31;;;;;;;5.07;2.72;;;6.90;97.60;;;;;;4895588;29;20111;-85
2022/12/28 03:15:03;;;;;;;4.75;2.58;;;6.90;97.60;;;;;;4913863;29;20044;-84
2022/12/28 03:31:43;;;;;;;6.35;2.83;;;6.90;98.00;;;;;;4894989;29;20054;-82
2022/12/28 03:34:13;;;;;;;4.25;3.08;;;7.00;98.10;;;;;;4882812;29;20536;-82
2022/12/28 03:37:06;;;;;;;6.25;2.85;;;6.90;98.10;;;;;;4872476;29;20044;-83
2022/12/28 03:39:48;;;;;;;5.00;2.60;;;7.00;98.10;;;;;;4917659;29;20055;-83
2022/12/28 03:45:21;;;;;;;5.10;3.00;;;7.00;98.20;;;;;;4902805;29;20503;-83
2022/12/28 03:48:10;;;;;;;4.25;2.53;;;7.00;98.30;;;;;;4889097;29;20121;-82
2022/12/28 03:50:40;;;;;;;6.18;3.15;;;7.00;98.40;;;;;;4902086;29;20044;-82
2022/12/28 03:53:08;;;;;;;7.38;3.47;;;7.00;98.50;;;;;;4911394;29;20118;-82
2022/12/28 03:55:39;;;;;;;4.50;2.97;;;7.00;98.50;;;;;;4881730;29;20131;-82
2022/12/28 03:58:06;;;;;;;6.13;3.22;;;7.10;98.50;;;;;;4879815;29;20050;-83
2022/12/28 04:00:33;;;;;;;4.50;2.72;;;7.10;98.60;;;;;;4892041;29;20477;-83
2022/12/28 04:03:02;;;;;;;6.07;2.78;;;7.10;98.50;;;;;;4875809;29;20084;-83
2022/12/28 04:05:29;;;;;;;6.32;2.97;;;7.10;98.60;;;;;;4885636;29;20471;-83
2022/12/28 04:07:57;;;;;;;3.90;2.40;;;7.10;98.60;;;;;;4907538;29;20048;-82
2022/12/28 04:10:24;;;;;;;5.50;3.13;;;7.20;98.60;;;;;;4877796;29;20071;-83
2022/12/28 04:12:55;;;;;;;5.20;3.28;;;7.20;98.70;;;;;;4918226;29;20047;-83
2022/12/28 04:15:43;;;;;;;6.40;3.60;;;7.20;98.70;;;;;;4915766;29;20054;-84
2022/12/28 04:18:10;;;;;;;8.10;3.67;;;7.20;98.80;;;;;;4895558;29;20187;-83
2022/12/28 04:20:38;;;;;;;5.30;3.35;;;7.30;98.80;;;;;;4913390;29;20047;-83
2022/12/28 04:23:05;;;;;;;8.02;3.85;;;7.30;98.80;;;;;;4889124;28;20048;-87
2022/12/28 04:25:32;;;;;;;5.97;3.67;;;7.30;98.90;;;;;;4911765;29;20047;-83
2022/12/28 04:27:59;;;;;;;5.75;3.28;;;7.30;98.90;;;;;;4910731;29;20134;-83
2022/12/28 04:30:49;;;;;;;5.53;3.08;;;7.30;98.90;;;;;;4910546;29;20047;-84
2022/12/28 04:33:16;;;;;;;4.95;3.05;;;7.30;98.90;;;;;;4919936;29;20044;-84
2022/12/28 04:35:46;;;;;;;5.93;3.00;;;7.40;98.90;;;;;;4904687;29;20443;-85
2022/12/28 04:38:13;;;;;;;5.75;3.25;;;7.40;98.90;;;;;;4913739;29;20138;-85
2022/12/28 04:40:41;;;;;;;4.90;2.65;;;7.40;99.00;;;;;;4894172;29;20482;-85
2022/12/28 04:43:08;;;;;;;6.90;3.38;;;7.40;99.00;;;;;;4888520;29;20067;-85
2022/12/28 04:45:35;;;;;;;5.97;3.20;;;7.40;99.00;;;;;;4922488;29;20052;-86
2022/12/28 04:48:02;;;;;;;7.47;4.25;;;7.40;99.00;;;;;;4907812;29;20077;-86
2022/12/28 04:50:30;;;;;;;5.35;3.67;;;7.50;99.10;;;;;;4888838;29;20062;-87
2022/12/28 04:52:57;;;;;;;5.97;3.78;;;7.50;99.10;;;;;;4926695;29;20048;-86
2022/12/28 04:55:24;;;;;;;7.88;2.90;;;7.50;99.10;;;;;;4904384;29;20054;-86
2022/12/28 04:57:59;;;;;;;6.93;3.30;;;7.50;99.10;;;;;;4923466;29;20131;-86
2022/12/28 05:00:26;;;;;;;4.63;3.20;;;7.50;99.10;;;;;;4916281;29;20051;-86
2022/12/28 05:02:56;;;;;;;5.55;3.58;;;7.50;99.10;;;;;;4907683;29;20067;-85
2022/12/28 05:05:23;;;;;;;6.93;3.78;;;7.60;99.20;;;;;;4924151;29;20050;-85
2022/12/28 05:07:51;;;;;;;5.70;3.38;;;7.50;99.20;;;;;;4902146;29;20052;-85
2022/12/28 05:10:18;;;;;;;6.60;4.13;;;7.60;99.20;;;;;;4916031;29;20052;-85
2022/12/28 05:12:45;;;;;;;6.60;3.75;;;7.60;99.20;;;;;;4889655;29;20055;-85
2022/12/28 05:15:12;;;;;;;8.77;4.55;;;7.60;99.30;;;;;;4892939;29;20138;-85
2022/12/28 05:17:39;;;;;;;5.60;3.42;;;7.60;99.30;;;;;;4883712;29;20106;-85
2022/12/28 05:20:06;;;;;;;6.78;4.40;;;7.70;99.30;;;;;;4888301;29;20072;-85
2022/12/28 05:22:36;;;;;;;5.15;3.78;;;7.70;99.30;;;;;;4888929;29;20043;-84
2022/12/28 05:25:07;;;;;;;6.85;3.80;;;7.70;99.30;;;;;;4906455;29;20040;-85
2022/12/28 05:27:34;;;;;;;6.50;3.75;;;7.70;99.30;;;;;;4879383;29;20095;-85
2022/12/28 05:30:01;;;;;;;6.70;4.13;;;7.70;99.30;;;;;;4898111;29;20048;-84
2022/12/28 05:32:28;;;;;;;5.25;3.70;;;7.70;99.30;;;;;;4924726;29;20036;-85
2022/12/28 05:34:55;;;;;;;5.25;3.97;;;7.70;99.40;;;;;;4905196;29;20052;-85
2022/12/28 05:37:25;;;;;;;6.55;3.40;;;7.80;99.40;;;;;;4872687;29;20091;-84
2022/12/28 05:39:55;;;;;;;5.72;3.38;;;7.80;99.40;;;;;;4900214;29;20047;-84
2022/12/28 05:42:25;;;;;;;5.45;3.28;;;7.80;99.40;;;;;;4898020;29;20407;-84
2022/12/28 05:44:52;;;;;;;6.75;3.78;;;7.80;99.40;;;;;;4869739;29;20090;-85
2022/12/28 05:47:19;;;;;;;7.65;4.18;;;7.80;99.50;;;;;;4899973;29;20044;-84
2022/12/28 05:49:46;;;;;;;8.38;4.55;;;7.80;99.70;;;;;;4894424;29;20071;-85
2022/12/28 05:52:13;;;;;;;7.32;4.13;;;7.90;99.50;;;;;;4887437;29;20050;-85
2022/12/28 05:54:40;;;;;;;8.52;4.65;;;7.90;99.50;;;;;;4910467;29;20067;-84
2022/12/28 05:57:07;;;;;;;7.30;4.50;;;7.90;99.60;;;;;;4883167;29;20501;-83
2022/12/28 05:59:34;;;;;;;9.52;5.28;;;7.90;99.60;;;;;;4887826;29;20059;-85
2022/12/28 06:02:01;;;;;;;6.10;3.63;;;7.90;99.60;;;;;;4903547;29;20051;-85
2022/12/28 06:04:28;;;;;;;6.90;4.55;;;7.90;99.60;;;;;;4900434;29;20044;-86
2022/12/28 06:06:55;;;;;;;6.47;3.88;;;7.90;99.60;;;;;;4895522;29;20498;-84
2022/12/28 06:09:22;;;;;;;6.47;3.70;;;8.00;99.70;;;;;;4886154;29;20059;-85
2022/12/28 06:11:49;;;;;;;5.20;3.20;;;8.00;99.70;;;;;;4878425;29;20083;-83
2022/12/28 06:14:16;;;;;;;7.68;4.18;;;8.00;99.70;;;;;;4885441;29;20079;-84
2022/12/28 06:16:44;;;;;;;6.45;3.00;;;8.00;99.70;;;;;;4869299;29;20135;-84
2022/12/28 06:19:14;;;;;;;7.75;4.07;;;8.00;99.70;;;;;;4900299;29;20076;-85
2022/12/28 06:21:41;;;;;;;6.25;3.70;;;8.00;99.80;;;;;;4896165;29;20043;-84
2022/12/28 06:24:09;;;;;;;8.73;3.75;;;8.10;99.80;;;;;;4890524;29;20052;-85
2022/12/28 06:26:38;;;;;;;9.13;4.03;;;8.10;99.80;;;;;;4914943;29;20517;-86
2022/12/28 06:29:05;;;;;;;5.75;3.67;;;8.10;99.80;;;;;;4899240;29;20051;-87
2022/12/28 06:31:35;;;;;;;6.85;3.72;;;8.10;99.90;;;;;;4901557;29;20043;-86
2022/12/28 06:34:04;;;;;;;5.03;2.95;;;8.10;99.90;;;;;;4910038;29;20054;-85
2022/12/28 06:36:37;;;;;;;5.07;3.20;;;8.10;99.90;;;;;;4894442;29;20048;-87
2022/12/28 06:39:06;;;;;;;5.40;2.95;;;8.10;99.90;;;;;;4902296;29;20048;-86
2022/12/28 06:41:34;;;;;;;4.70;2.65;;;8.10;99.80;;;;;;4888112;29;20454;-86
2022/12/28 06:44:04;;;;;;;5.88;3.25;;;8.20;99.90;;;;;;4906254;29;20048;-86
2022/12/28 06:46:31;;;;;;;5.88;2.92;;;8.20;99.90;;;;;;4895776;29;20074;-86
2022/12/28 06:48:58;;;;;;;4.15;2.33;;;8.20;99.90;;;;;;4876634;29;20134;-87
2022/12/28 06:51:31;;;;;;;5.40;3.00;;;8.20;99.90;;;;;;4906806;29;20091;-86
2022/12/28 06:53:58;;;;;;;7.38;3.95;;;8.20;99.90;;;;;;4905840;29;20048;-86
2022/12/28 06:56:27;;;;;;;7.93;3.38;;;8.20;99.90;;;;;;4872480;29;20513;-85
2022/12/28 06:58:54;;;;;;;5.25;3.05;;;8.20;99.90;;;;;;4902922;29;20156;-86
2022/12/28 07:01:31;;;;;;;6.00;3.58;;;8.20;99.90;;;;;;4859558;29;20051;-85
2022/12/28 07:04:00;;;;;;;4.25;2.75;;;8.30;99.90;;;;;;4904579;29;20052;-88
2022/12/28 07:06:29;;;;;;;4.30;2.97;;;8.30;99.90;;;;;;4916764;29;20477;-87
2022/12/28 07:09:02;;;;;;;3.75;2.47;;;8.30;99.90;;;;;;4918735;29;20454;-85
2022/12/28 07:11:29;;;;;;;5.55;3.70;;;8.30;99.90;;;;;;4912985;29;20115;-85
2022/12/28 07:13:56;;;;;;;4.45;3.30;;;8.30;99.90;;;;;;4911648;29;20498;-83
2022/12/28 07:16:25;;;;;;;6.35;3.95;;;8.40;99.90;;;;;;4927907;29;20052;-85
2022/12/28 07:18:57;;;;;;;6.95;3.42;;;8.40;99.90;;;;;;4917495;29;20039;-85
2022/12/28 07:21:29;;;;;;;6.80;3.42;;;8.40;99.90;;;;;;4926329;29;20058;-85
2022/12/28 07:23:56;;;;;;;4.87;3.17;;;8.40;99.90;;;;;;4913283;29;20054;-84
2022/12/28 07:26:26;;;;;;;5.15;3.88;;;8.40;99.90;;;;;;4895630;29;20704;-82
2022/12/28 07:28:55;;;;;;;3.92;2.65;;;8.40;99.90;;;;;;4927269;29;20048;-82
2022/12/28 07:31:26;;;;;;;5.65;2.95;;;8.50;99.90;;;;;;4936727;29;20048;-82
2022/12/28 07:33:54;;;;;;;4.43;2.88;;;8.50;99.90;;;;;;4932723;29;20051;-83
2022/12/28 07:36:25;;;;;;;4.88;3.40;;;8.50;99.90;;;;;;4929082;29;20462;-83
2022/12/28 07:38:52;;;;;;;6.78;3.63;;;8.50;99.90;;;;;;4920758;29;20530;-83
2022/12/28 07:41:22;;;;;;;4.10;2.70;;;8.50;99.90;;;;;;4913710;29;20490;-83
2022/12/28 07:43:50;;;;;;;4.72;3.20;;;8.50;99.90;;;;;;4929748;29;20138;-83
2022/12/28 07:46:28;;;;;;;5.72;3.25;;;8.50;99.90;;;;;;4940072;29;20043;-83
2022/12/28 07:48:56;;;;;;;5.55;3.00;;;8.50;99.90;;;;;;4933393;29;20075;-83
2022/12/28 07:51:28;;;;;;;5.68;3.75;;;8.50;99.90;;;;;;4909891;29;20079;-83
2022/12/28 07:53:57;;;;;;;5.32;3.15;;;8.50;99.90;;;;;;4922139;29;20044;-83
2022/12/28 07:56:26;;;;;;;4.90;3.15;;;8.50;99.90;;;;;;4932762;29;20099;-82
2022/12/28 07:58:56;;;;;;;4.18;3.05;;;8.50;99.90;;;;;;4922689;29;20051;-83
2022/12/28 08:01:28;;;;;;;4.30;2.88;;;8.60;99.90;;;;;;4928387;29;20047;-82
2022/12/28 08:03:57;;;;;;;5.20;3.33;;;8.60;99.90;;;;;;4909507;29;20051;-84
2022/12/28 08:06:26;;;;;;;6.57;3.22;;;8.60;99.90;;;;;;4927906;29;20058;-83
2022/12/28 08:08:55;;;;;;;6.13;3.03;;;8.60;99.90;;;;;;4923667;29;20179;-83
2022/12/28 08:11:25;;;;;;;5.50;3.40;;;8.60;99.90;;;;;;4939346;29;20588;-83
2022/12/28 08:13:54;;;;;;;4.70;2.95;;;8.60;99.90;;;;;;4927030;29;20071;-82
2022/12/28 08:16:23;;;;;;;5.20;2.70;;;8.60;99.90;;;;;;4923232;29;20138;-84
2022/12/28 08:18:51;;;;;;;4.03;2.25;;;8.60;99.90;;;;;;4904845;29;20047;-83
2022/12/28 08:21:27;;;;;;;6.45;3.20;;;8.60;99.90;;;;;;4919681;29;20044;-83
2022/12/28 08:23:56;;;;;;;4.78;3.05;;;8.60;99.90;;;;;;4923858;29;20056;-83
2022/12/28 08:26:25;;;;;;;4.88;3.00;;;8.60;99.90;;;;;;4920279;29;20126;-83
2022/12/28 08:28:58;;;;;;;5.75;3.03;;;8.70;99.90;;;;;;4911229;29;20135;-83
2022/12/28 08:31:34;;;;;;;5.57;3.20;;;8.70;99.90;;;;;;4932958;29;20044;-83
2022/12/28 08:34:02;;;;;;;6.78;3.08;;;8.60;99.90;;;;;;4923294;29;20044;-83
2022/12/28 08:36:30;;;;;;;7.10;3.70;;;8.70;99.90;;;;;;4945446;29;20047;-83
2022/12/28 08:38:59;;;;;;;8.02;4.03;;;8.70;99.90;;;;;;4925592;29;20472;-83
2022/12/28 08:41:28;;;;;;;4.80;2.80;;;8.70;99.90;;;;;;4938684;28;20047;-83
2022/12/28 08:43:55;;;;;;;5.07;3.05;;;8.70;99.90;;;;;;4934654;29;20044;-83
2022/12/28 08:46:25;;;;;;;5.85;3.50;;;8.70;99.90;;;;;;4919876;29;20123;-83
2022/12/28 08:48:53;;;;;;;5.07;3.40;;;8.70;99.90;;;;;;4935932;29;20043;-83
2022/12/28 08:51:26;;;;;;;8.05;3.83;;;8.70;99.90;;;;;;4934678;29;20094;-83
2022/12/28 08:53:53;;;;;;;5.57;3.20;;;8.70;99.90;;;;;;4930253;29;20442;-82
2022/12/28 08:56:23;;;;;;;5.50;3.40;;;8.70;99.90;;;;;;4904137;29;20051;-83
2022/12/28 08:58:51;;;;;;;5.50;3.30;;;8.70;99.90;;;;;;4920683;29;20490;-82
2022/12/28 09:01:27;;;;;;;4.85;2.97;;;8.70;99.90;;;;;;4922814;29;20047;-83
2022/12/28 09:03:58;;;;;;;7.43;4.28;;;8.70;99.90;;;;;;4925273;29;20666;-82
2022/12/28 09:06:36;;;;;;;5.60;2.90;;;8.70;99.90;;;;;;4911281;29;20110;-83
2022/12/28 09:09:07;;;;;;;5.28;2.83;;;8.80;99.90;;;;;;4923841;29;20048;-83
2022/12/28 09:11:35;;;;;;;4.63;2.53;;;8.80;99.90;;;;;;4927178;29;20106;-83
2022/12/28 09:14:05;;;;;;;4.25;2.30;;;8.80;99.90;;;;;;4908912;29;20537;-83
2022/12/28 09:16:36;;;;;;;4.10;2.35;;;8.80;99.90;;;;;;4925980;29;20110;-83
2022/12/28 09:19:05;;;;;;;4.65;2.85;;;8.80;99.90;;;;;;4909701;29;20099;-82
2022/12/28 09:21:34;;;;;;;6.13;2.45;;;8.80;99.90;;;;;;4938404;29;20114;-83
2022/12/28 09:24:02;;;;;;;4.25;2.90;;;8.80;99.90;;;;;;4934448;29;20047;-83
2022/12/28 09:26:33;;;;;;;4.75;2.65;;;8.80;99.90;;;;;;4908420;29;20039;-83
2022/12/28 09:29:02;;;;;;;4.70;3.05;;;8.80;99.90;;;;;;4918909;29;20044;-84
2022/12/28 09:31:32;;;;;;;5.22;2.67;;;8.80;99.90;;;;;;4919143;29;20060;-85
2022/12/28 09:33:59;;;;;;;5.47;2.83;;;8.80;99.90;;;;;;4918962;29;20043;-83
2022/12/28 09:36:46;;;;;;;4.28;2.75;;;8.80;99.90;;;;;;4906663;29;20102;-84
2022/12/28 09:39:19;;;;;;;4.32;3.00;;;8.80;99.90;;;;;;4895135;29;20047;-84
2022/12/28 09:42:05;;;;;;;4.70;2.78;;;8.90;99.90;;;;;;4924457;29;20138;-85
2022/12/28 09:44:41;;;;;;;5.53;3.03;;;8.90;99.90;;;;;;4929175;29;20047;-85
2022/12/28 09:47:17;;;;;;;5.55;2.55;;;8.90;99.90;;;;;;4932428;29;20056;-85
2022/12/28 09:50:07;;;;;;;4.53;2.65;;;8.90;99.90;;;;;;4929098;29;20051;-86
2022/12/28 09:52:46;;;;;;;4.05;2.72;;;8.90;99.90;;;;;;4938311;29;20055;-86
2022/12/28 09:55:18;;;;;;;6.32;2.97;;;8.90;99.90;;;;;;4938097;29;20130;-86
2022/12/28 09:57:50;;;;;;;4.38;2.97;;;8.90;99.90;;;;;;4876076;29;20048;-87
2022/12/28 10:00:23;;;;;;;4.80;3.53;;;8.90;99.90;;;;;;4932421;29;20065;-87
2022/12/28 10:03:36;;;;;;;5.93;3.28;;;8.90;99.90;;;;;;4908045;28;20099;-84
2022/12/28 10:06:13;;;;;;;8.82;3.55;;;8.90;99.90;;;;;;4914931;29;20051;-84
2022/12/28 10:08:44;;;;;;;5.60;2.58;;;8.90;99.90;;;;;;4902917;29;20165;-84
2022/12/28 10:11:19;;;;;;;5.50;3.22;;;8.90;99.90;;;;;;4951408;29;20860;-85
2022/12/28 10:13:55;;;;;;;5.85;3.05;;;8.90;99.90;;;;;;4928005;29;20165;-84
2022/12/28 10:16:26;;;;;;;3.80;2.33;;;8.90;99.90;;;;;;4932190;29;20147;-84
2022/12/28 10:18:54;;;;;;;7.07;3.00;;;8.90;99.90;;;;;;4918432;29;20044;-84
2022/12/28 10:21:23;;;;;;;3.95;2.25;;;8.90;99.90;;;;;;4887571;29;20138;-84
2022/12/28 10:23:59;;;;;;;3.75;2.15;;;9.00;99.90;;;;;;4927205;29;20055;-83
2022/12/28 10:26:46;;;;;;;5.93;3.00;;;9.00;99.90;;;;;;4911373;29;20469;-84
2022/12/28 10:29:22;;;;;;;7.25;3.30;;;9.00;99.90;;;;;;4913140;29;20134;-85
2022/12/28 10:32:17;;;;;;;3.85;2.70;;;9.00;99.90;;;;;;4918535;29;20134;-85
2022/12/28 10:35:03;;;;;;;6.57;3.22;;;9.00;99.90;;;;;;4930562;29;20518;-85
2022/12/28 10:37:33;;;;;;;5.93;2.83;;;9.00;99.90;;;;;;4913900;29;20110;-86
2022/12/28 10:40:05;;;;;;;5.05;2.53;;;9.00;99.90;;;;;;4937787;29;20485;-83
2022/12/28 10:42:42;;;;;;;3.45;2.30;;;9.10;99.90;;;;;;4914847;29;20090;-85
2022/12/28 10:45:46;;;;;;;3.47;2.33;;;9.00;99.90;;;;;;4931529;29;20055;-85
2022/12/28 10:48:31;;;;;;;5.45;2.78;;;9.10;99.90;;;;;;4893721;29;20055;-84
2022/12/28 10:51:14;;;;;;;6.32;3.42;;;9.10;99.90;;;;;;4912097;29;20485;-85
2022/12/28 10:53:54;;;;;;;5.43;3.33;;;9.10;99.90;;;;;;4907395;29;20363;-84
2022/12/28 10:56:29;;;;;;;5.10;2.88;;;9.10;99.90;;;;;;4926327;29;20055;-83
2022/12/28 10:59:11;;;;;;;6.35;2.95;;;9.10;99.90;;;;;;4938033;29;20055;-84
2022/12/28 11:01:40;;;;;;;5.78;2.67;;;9.20;99.90;;;;;;4928122;29;20051;-87
2022/12/28 11:04:21;;;;;;;4.55;2.55;;;9.10;99.90;;;;;;4908061;29;20126;-86
2022/12/28 11:07:00;;;;;;;4.75;2.10;;;9.20;99.90;;;;;;4937197;29;20043;-86
2022/12/28 11:09:30;;;;;;;3.45;2.30;;;9.20;99.90;;;;;;4903721;29;20067;-85
2022/12/28 11:12:23;;;;;;;3.50;2.35;;;9.20;99.90;;;;;;4929041;29;20055;-85
2022/12/28 11:14:55;;;;;;;4.95;1.95;;;9.20;99.90;;;;;;4909327;29;20130;-86
2022/12/28 11:17:27;;;;;;;3.15;1.80;;;9.20;99.90;;;;;;4906608;29;20055;-85
2022/12/28 11:20:02;;;;;;;3.58;1.80;;;9.20;99.90;;;;;;4912171;29;20047;-85
2022/12/28 11:22:29;;;;;;;2.97;1.92;;;9.20;99.90;;;;;;4911740;29;20048;-87
2022/12/28 11:24:58;;;;;;;2.80;1.48;;;9.20;99.90;;;;;;4904052;29;20058;-88
2022/12/28 11:27:26;;;;;;;2.75;1.60;;;9.20;99.90;;;;;;4946202;29;20039;-88
2022/12/28 11:29:54;;;;;;;2.72;1.55;;;9.20;99.90;;;;;;4911723;29;20091;-87
2022/12/28 11:32:50;;;;;;;3.03;1.40;;;9.20;99.90;;;;;;4933942;29;20082;-86
2022/12/28 11:35:27;;;;;;;2.72;1.17;;;9.20;99.90;;;;;;4940207;29;20086;-89
2022/12/28 11:38:05;;;;;;;2.95;1.30;;;9.20;99.90;;;;;;4939704;29;20039;-89
2022/12/28 11:40:46;;;;;;;2.83;1.77;;;9.30;99.90;;;;;;4921715;29;20114;-86
2022/12/28 11:43:29;;;;;;;2.38;1.10;;;9.20;99.90;;;;;;4933047;29;20062;-86
2022/12/28 11:46:02;;;;;;;1.90;1.10;;;9.20;99.90;;;;;;4931328;29;20401;-87
2022/12/28 11:48:41;;;;;;;3.88;1.13;;;9.20;99.90;;;;;;4911436;29;20521;-87
2022/12/28 11:51:29;;;;;;;2.75;1.27;;;9.30;99.90;;;;;;4917287;29;20054;-88
2022/12/28 11:54:02;;;;;;;1.90;1.02;;;9.30;99.90;;;;;;4910974;29;20055;-83
2022/12/28 11:56:45;;;;;;;2.38;1.40;;;9.20;99.90;;;;;;4930274;29;20174;-87
2022/12/28 11:59:29;;;;;;;2.75;1.20;;;9.30;99.90;;;;;;4934110;29;20052;-82
2022/12/28 12:01:57;;;;;;;1.77;1.00;;;9.20;99.90;;;;;;4926051;29;20057;-83
2022/12/28 12:04:39;;;;;;;2.83;1.45;;;9.20;99.90;;;;;;4910985;29;20166;-85
2022/12/28 12:07:22;;;;;;;2.40;1.33;;;9.30;99.90;;;;;;4939805;29;20046;-84
2022/12/28 12:10:11;;;;;;;3.78;1.50;;;9.30;99.90;;;;;;4918937;29;20142;-87
2022/12/28 12:12:48;;;;;;;2.90;1.50;;;9.30;99.90;;;;;;4920618;29;20473;-87
2022/12/28 12:15:18;;;;;;;2.22;1.20;;;9.30;99.90;;;;;;4930658;29;20132;-85
2022/12/28 12:17:57;;;;;;;2.80;1.45;;;9.30;99.90;;;;;;4926546;29;20061;-86
2022/12/28 12:20:50;;;;;;;4.28;1.60;;;9.30;99.90;;;;;;4923941;29;20473;-87
2022/12/28 12:23:35;;;;;;;3.83;1.50;;;9.30;99.90;;;;;;4911679;29;20066;-86
2022/12/28 12:26:44;;;;;;;3.20;1.45;;;9.20;99.90;;;;;;4929956;29;20502;-86
2022/12/28 12:29:18;;;;;;;5.15;1.50;;;9.30;99.90;;;;;;4874360;29;20059;-87
2022/12/28 12:32:00;;;;;;;4.32;1.90;;;9.20;99.90;;;;;;4922553;29;20103;-87
2022/12/28 12:34:42;;;;;;;2.20;1.20;;;9.20;99.90;;;;;;4923960;29;20047;-86
2022/12/28 12:37:43;;;;;;;3.35;1.38;;;9.30;99.90;;;;;;4921608;29;20494;-87
2022/12/28 12:40:34;;;;;;;4.13;1.65;;;9.20;99.90;;;;;;4930987;29;20043;-86
2022/12/28 12:43:13;;;;;;;3.08;1.30;;;9.20;99.90;;;;;;4929048;29;20064;-87
2022/12/28 12:45:52;;;;;;;3.22;1.55;;;9.20;99.90;;;;;;4918341;29;20052;-88
2022/12/28 12:48:38;;;;;;;2.78;1.75;;;9.20;99.90;;;;;;4932514;29;20102;-85
2022/12/28 12:51:24;;;;;;;4.47;2.60;;;9.20;99.90;;;;;;4915354;29;20150;-86
2022/12/28 12:54:16;;;;;;;2.38;1.40;;;9.20;99.90;;;;;;4938388;29;20103;-87
2022/12/28 12:56:49;;;;;;;6.00;2.00;;;9.20;99.90;;;;;;4931169;29;20054;-87
2022/12/28 12:59:48;;;;;;;3.15;1.90;;;9.20;99.90;;;;;;4939517;29;20497;-85
2022/12/28 13:02:21;;;;;;;4.45;1.67;;;9.20;99.90;;;;;;4937809;29;20466;-86
2022/12/28 13:04:49;;;;;;;4.30;1.88;;;9.20;99.90;;;;;;4926223;29;20043;-88
2022/12/28 13:07:23;;;;;;;5.80;2.08;;;9.20;99.90;;;;;;4889068;29;20075;-89
2022/12/28 13:09:53;;;;;;;4.13;2.35;;;9.20;99.90;;;;;;4906792;29;20502;-87
2022/12/28 13:12:23;;;;;;;3.63;1.85;;;9.20;99.90;;;;;;4933439;28;20063;-85
2022/12/28 13:14:59;;;;;;;5.20;2.30;;;9.20;99.90;;;;;;4919252;29;20052;-86
2022/12/28 13:17:38;;;;;;;4.45;2.20;;;9.30;99.90;;;;;;4929321;29;20047;-86
2022/12/28 13:20:16;;;;;;;3.15;1.67;;;9.30;99.90;;;;;;4932694;29;20536;-83
2022/12/28 13:22:45;;;;;;;3.72;1.83;;;9.30;99.90;;;;;;4931789;29;20062;-87
2022/12/28 13:25:31;;;;;;;3.40;1.83;;;9.30;99.90;;;;;;4913633;29;20110;-88
2022/12/28 13:28:00;;;;;;;4.28;1.58;;;9.30;99.90;;;;;;4919440;29;20053;-86
2022/12/28 13:30:30;;;;;;;6.15;1.92;;;9.30;99.90;;;;;;4932896;29;20040;-86
2022/12/28 13:33:01;;;;;;;4.47;2.03;;;9.30;99.90;;;;;;4915002;29;20070;-85
2022/12/28 13:35:31;;;;;;;4.53;1.98;;;9.30;99.90;;;;;;4935832;28;20039;-86
2022/12/28 13:38:13;;;;;;;4.60;1.85;;;9.30;99.90;;;;;;4934882;29;20047;-87
2022/12/28 13:40:51;;;;;;;3.05;1.73;;;9.30;99.90;;;;;;4938311;29;20039;-84
2022/12/28 13:43:44;;;;;;;5.72;1.95;;;9.40;99.90;;;;;;4938457;29;20094;-87
2022/12/28 13:46:16;;;;;;;5.03;1.90;;;9.40;99.90;;;;;;4945654;29;20048;-86
2022/12/28 13:48:48;;;;;;;5.63;1.92;;;9.30;99.90;;;;;;4911277;29;20055;-86
2022/12/28 13:51:18;;;;;;;4.50;1.90;;;9.30;99.90;;;;;;4935835;29;20058;-89
2022/12/28 13:53:53;;;;;;;3.42;2.22;;;9.30;99.90;;;;;;4938953;29;20516;-86
2022/12/28 13:56:22;;;;;;;4.13;1.70;;;9.40;99.90;;;;;;4921774;29;20387;-88
2022/12/28 13:59:08;;;;;;;4.20;2.20;;;9.30;99.90;;;;;;4938947;29;20047;-88